sensor_id;sensor_type;location;lat;lon;timestamp;P1;durP1;ratioP1;P2;durP2;ratioP2
8564;SDS011;4320;51.498;6.556;2023-09-30T00:01:54;13.18;;;6.05;;
8564;SDS011;4320;51.498;6.556;2023-09-30T00:04:20;14.15;;;6.25;;
8564;SDS011;4320;51.498;6.556;2023-09-30T00:06:45;15.32;;;6.45;;
8564;SDS011;4320;51.498;6.556;2023-09-30T00:09:11;13.57;;;6.20;;
8564;SDS011;4320;51.498;6.556;2023-09-30T00:11:36;13.40;;;6.13;;
8564;SDS011;4320;51.498;6.556;2023-09-30T00:14:02;13.18;;;6.03;;
8564;SDS011;4320;51.498;6.556;2023-09-30T00:16:29;11.32;;;5.38;;
8564;SDS011;4320;51.498;6.556;2023-09-30T00:18:56;12.15;;;5.95;;
8564;SDS011;4320;51.498;6.556;2023-09-30T00:21:23;14.18;;;6.22;;
8564;SDS011;4320;51.498;6.556;2023-09-30T00:23:49;17.38;;;6.88;;
8564;SDS011;4320;51.498;6.556;2023-09-30T00:26:14;12.25;;;5.70;;
8564;SDS011;4320;51.498;6.556;2023-09-30T00:28:40;15.00;;;5.85;;
8564;SDS011;4320;51.498;6.556;2023-09-30T00:31:09;13.93;;;5.63;;
8564;SDS011;4320;51.498;6.556;2023-09-30T00:33:35;10.82;;;5.63;;
8564;SDS011;4320;51.498;6.556;2023-09-30T00:36:05;12.68;;;6.18;;
8564;SDS011;4320;51.498;6.556;2023-09-30T00:38:32;11.93;;;5.95;;
8564;SDS011;4320;51.498;6.556;2023-09-30T00:40:57;12.00;;;6.15;;
8564;SDS011;4320;51.498;6.556;2023-09-30T00:43:23;9.75;;;5.82;;
8564;SDS011;4320;51.498;6.556;2023-09-30T00:45:49;10.65;;;5.47;;
8564;SDS011;4320;51.498;6.556;2023-09-30T00:48:21;15.23;;;6.45;;
8564;SDS011;4320;51.498;6.556;2023-09-30T00:50:47;16.50;;;6.82;;
8564;SDS011;4320;51.498;6.556;2023-09-30T00:53:13;13.43;;;6.60;;
8564;SDS011;4320;51.498;6.556;2023-09-30T00:55:39;13.88;;;5.85;;
8564;SDS011;4320;51.498;6.556;2023-09-30T00:58:04;10.88;;;5.78;;
8564;SDS011;4320;51.498;6.556;2023-09-30T01:00:31;14.48;;;6.85;;
8564;SDS011;4320;51.498;6.556;2023-09-30T01:02:57;13.05;;;6.57;;
8564;SDS011;4320;51.498;6.556;2023-09-30T01:05:28;11.07;;;6.38;;
8564;SDS011;4320;51.498;6.556;2023-09-30T01:07:55;13.73;;;6.40;;
8564;SDS011;4320;51.498;6.556;2023-09-30T01:10:20;16.02;;;7.63;;
8564;SDS011;4320;51.498;6.556;2023-09-30T01:12:46;15.73;;;7.03;;
8564;SDS011;4320;51.498;6.556;2023-09-30T01:15:12;12.93;;;6.70;;
8564;SDS011;4320;51.498;6.556;2023-09-30T01:17:38;16.23;;;7.57;;
8564;SDS011;4320;51.498;6.556;2023-09-30T01:20:04;11.90;;;6.75;;
8564;SDS011;4320;51.498;6.556;2023-09-30T01:22:32;16.08;;;7.03;;
8564;SDS011;4320;51.498;6.556;2023-09-30T01:24:58;16.65;;;6.93;;
8564;SDS011;4320;51.498;6.556;2023-09-30T01:27:23;12.25;;;6.13;;
8564;SDS011;4320;51.498;6.556;2023-09-30T01:29:50;17.33;;;7.13;;
8564;SDS011;4320;51.498;6.556;2023-09-30T01:32:16;16.67;;;7.53;;
8564;SDS011;4320;51.498;6.556;2023-09-30T01:34:41;13.40;;;7.10;;
8564;SDS011;4320;51.498;6.556;2023-09-30T01:37:07;13.05;;;6.13;;
8564;SDS011;4320;51.498;6.556;2023-09-30T01:39:33;10.35;;;5.60;;
8564;SDS011;4320;51.498;6.556;2023-09-30T01:41:59;16.25;;;7.10;;
8564;SDS011;4320;51.498;6.556;2023-09-30T01:44:24;11.75;;;6.50;;
8564;SDS011;4320;51.498;6.556;2023-09-30T01:46:50;14.55;;;6.72;;
8564;SDS011;4320;51.498;6.556;2023-09-30T01:49:16;17.77;;;6.93;;
8564;SDS011;4320;51.498;6.556;2023-09-30T01:51:43;14.07;;;7.28;;
8564;SDS011;4320;51.498;6.556;2023-09-30T01:54:09;12.48;;;6.65;;
8564;SDS011;4320;51.498;6.556;2023-09-30T01:56:36;12.68;;;6.38;;
8564;SDS011;4320;51.498;6.556;2023-09-30T01:59:02;12.98;;;6.55;;
8564;SDS011;4320;51.498;6.556;2023-09-30T02:01:27;13.50;;;6.82;;
8564;SDS011;4320;51.498;6.556;2023-09-30T02:03:53;10.30;;;5.97;;
8564;SDS011;4320;51.498;6.556;2023-09-30T02:06:19;11.65;;;7.00;;
8564;SDS011;4320;51.498;6.556;2023-09-30T02:08:44;13.43;;;6.55;;
8564;SDS011;4320;51.498;6.556;2023-09-30T02:11:10;18.88;;;6.60;;
8564;SDS011;4320;51.498;6.556;2023-09-30T02:13:37;15.25;;;6.60;;
8564;SDS011;4320;51.498;6.556;2023-09-30T02:16:03;13.63;;;5.97;;
8564;SDS011;4320;51.498;6.556;2023-09-30T02:18:28;13.32;;;6.68;;
8564;SDS011;4320;51.498;6.556;2023-09-30T02:20:57;10.05;;;6.32;;
8564;SDS011;4320;51.498;6.556;2023-09-30T02:23:24;14.57;;;6.75;;
8564;SDS011;4320;51.498;6.556;2023-09-30T02:25:50;11.20;;;5.85;;
8564;SDS011;4320;51.498;6.556;2023-09-30T02:28:15;12.63;;;6.85;;
8564;SDS011;4320;51.498;6.556;2023-09-30T02:30:41;11.77;;;6.18;;
8564;SDS011;4320;51.498;6.556;2023-09-30T02:33:07;11.73;;;6.40;;
8564;SDS011;4320;51.498;6.556;2023-09-30T02:35:32;15.75;;;6.32;;
8564;SDS011;4320;51.498;6.556;2023-09-30T02:37:58;13.25;;;6.63;;
8564;SDS011;4320;51.498;6.556;2023-09-30T02:40:24;15.50;;;6.78;;
8564;SDS011;4320;51.498;6.556;2023-09-30T02:42:50;17.80;;;6.45;;
8564;SDS011;4320;51.498;6.556;2023-09-30T02:45:16;12.68;;;6.07;;
8564;SDS011;4320;51.498;6.556;2023-09-30T02:47:42;13.43;;;6.82;;
8564;SDS011;4320;51.498;6.556;2023-09-30T02:50:08;14.80;;;7.10;;
8564;SDS011;4320;51.498;6.556;2023-09-30T02:52:38;11.63;;;6.45;;
8564;SDS011;4320;51.498;6.556;2023-09-30T02:55:07;17.27;;;6.88;;
8564;SDS011;4320;51.498;6.556;2023-09-30T02:57:37;13.55;;;6.35;;
8564;SDS011;4320;51.498;6.556;2023-09-30T03:00:03;16.88;;;6.70;;
8564;SDS011;4320;51.498;6.556;2023-09-30T03:02:48;12.00;;;6.25;;
8564;SDS011;4320;51.498;6.556;2023-09-30T03:05:18;15.40;;;6.72;;
8564;SDS011;4320;51.498;6.556;2023-09-30T03:07:45;14.07;;;6.63;;
8564;SDS011;4320;51.498;6.556;2023-09-30T03:10:11;12.02;;;6.55;;
8564;SDS011;4320;51.498;6.556;2023-09-30T03:12:39;12.85;;;5.93;;
8564;SDS011;4320;51.498;6.556;2023-09-30T03:15:04;10.60;;;6.47;;
8564;SDS011;4320;51.498;6.556;2023-09-30T03:17:30;13.43;;;6.45;;
8564;SDS011;4320;51.498;6.556;2023-09-30T03:19:57;19.15;;;7.07;;
8564;SDS011;4320;51.498;6.556;2023-09-30T03:22:24;15.35;;;7.13;;
8564;SDS011;4320;51.498;6.556;2023-09-30T03:24:54;14.85;;;6.57;;
8564;SDS011;4320;51.498;6.556;2023-09-30T03:27:20;13.55;;;6.60;;
8564;SDS011;4320;51.498;6.556;2023-09-30T03:29:45;12.23;;;6.40;;
8564;SDS011;4320;51.498;6.556;2023-09-30T03:32:11;13.23;;;6.32;;
8564;SDS011;4320;51.498;6.556;2023-09-30T03:34:37;12.40;;;6.57;;
8564;SDS011;4320;51.498;6.556;2023-09-30T03:37:02;12.65;;;6.45;;
8564;SDS011;4320;51.498;6.556;2023-09-30T03:39:31;16.35;;;6.72;;
8564;SDS011;4320;51.498;6.556;2023-09-30T03:41:57;14.90;;;6.35;;
8564;SDS011;4320;51.498;6.556;2023-09-30T03:44:24;14.27;;;6.75;;
8564;SDS011;4320;51.498;6.556;2023-09-30T03:46:50;13.90;;;7.60;;
8564;SDS011;4320;51.498;6.556;2023-09-30T03:49:17;12.68;;;7.07;;
8564;SDS011;4320;51.498;6.556;2023-09-30T03:51:44;11.95;;;6.57;;
8564;SDS011;4320;51.498;6.556;2023-09-30T03:54:11;15.73;;;7.22;;
8564;SDS011;4320;51.498;6.556;2023-09-30T03:56:36;12.57;;;6.57;;
8564;SDS011;4320;51.498;6.556;2023-09-30T03:59:03;11.45;;;6.88;;
8564;SDS011;4320;51.498;6.556;2023-09-30T04:01:29;10.65;;;6.75;;
8564;SDS011;4320;51.498;6.556;2023-09-30T04:03:56;10.77;;;6.55;;
8564;SDS011;4320;51.498;6.556;2023-09-30T04:06:21;12.63;;;6.95;;
8564;SDS011;4320;51.498;6.556;2023-09-30T04:08:47;15.13;;;7.05;;
8564;SDS011;4320;51.498;6.556;2023-09-30T04:11:13;15.07;;;7.38;;
8564;SDS011;4320;51.498;6.556;2023-09-30T04:13:43;20.38;;;7.72;;
8564;SDS011;4320;51.498;6.556;2023-09-30T04:16:10;17.63;;;6.75;;
8564;SDS011;4320;51.498;6.556;2023-09-30T04:18:36;13.80;;;7.40;;
8564;SDS011;4320;51.498;6.556;2023-09-30T04:21:01;10.70;;;7.05;;
8564;SDS011;4320;51.498;6.556;2023-09-30T04:23:27;12.15;;;7.40;;
8564;SDS011;4320;51.498;6.556;2023-09-30T04:25:53;13.27;;;8.00;;
8564;SDS011;4320;51.498;6.556;2023-09-30T04:28:18;13.90;;;8.00;;
8564;SDS011;4320;51.498;6.556;2023-09-30T04:30:46;16.38;;;7.45;;
8564;SDS011;4320;51.498;6.556;2023-09-30T04:33:13;17.83;;;7.43;;
8564;SDS011;4320;51.498;6.556;2023-09-30T04:35:39;13.40;;;7.30;;
8564;SDS011;4320;51.498;6.556;2023-09-30T04:38:05;11.85;;;7.35;;
8564;SDS011;4320;51.498;6.556;2023-09-30T04:40:31;14.32;;;7.03;;
8564;SDS011;4320;51.498;6.556;2023-09-30T04:42:58;13.48;;;7.22;;
8564;SDS011;4320;51.498;6.556;2023-09-30T04:45:25;11.93;;;7.57;;
8564;SDS011;4320;51.498;6.556;2023-09-30T04:47:51;12.30;;;7.63;;
8564;SDS011;4320;51.498;6.556;2023-09-30T04:50:18;11.70;;;7.40;;
8564;SDS011;4320;51.498;6.556;2023-09-30T04:52:46;16.63;;;8.13;;
8564;SDS011;4320;51.498;6.556;2023-09-30T04:55:13;13.85;;;8.27;;
8564;SDS011;4320;51.498;6.556;2023-09-30T04:57:41;17.33;;;8.27;;
8564;SDS011;4320;51.498;6.556;2023-09-30T05:00:14;14.82;;;8.35;;
8564;SDS011;4320;51.498;6.556;2023-09-30T05:02:43;12.65;;;7.70;;
8564;SDS011;4320;51.498;6.556;2023-09-30T05:05:09;14.50;;;7.90;;
8564;SDS011;4320;51.498;6.556;2023-09-30T05:07:35;14.55;;;8.27;;
8564;SDS011;4320;51.498;6.556;2023-09-30T05:10:01;13.90;;;7.55;;
8564;SDS011;4320;51.498;6.556;2023-09-30T05:12:31;12.25;;;8.13;;
8564;SDS011;4320;51.498;6.556;2023-09-30T05:14:58;14.52;;;8.98;;
8564;SDS011;4320;51.498;6.556;2023-09-30T05:17:24;14.63;;;8.18;;
8564;SDS011;4320;51.498;6.556;2023-09-30T05:19:49;13.10;;;8.10;;
8564;SDS011;4320;51.498;6.556;2023-09-30T05:22:15;17.08;;;9.73;;
8564;SDS011;4320;51.498;6.556;2023-09-30T05:24:43;17.10;;;9.07;;
8564;SDS011;4320;51.498;6.556;2023-09-30T05:27:09;14.35;;;8.30;;
8564;SDS011;4320;51.498;6.556;2023-09-30T05:29:34;15.73;;;9.18;;
8564;SDS011;4320;51.498;6.556;2023-09-30T05:32:01;18.83;;;10.15;;
8564;SDS011;4320;51.498;6.556;2023-09-30T05:34:26;13.30;;;8.95;;
8564;SDS011;4320;51.498;6.556;2023-09-30T05:36:53;15.43;;;8.82;;
8564;SDS011;4320;51.498;6.556;2023-09-30T05:39:18;17.65;;;9.27;;
8564;SDS011;4320;51.498;6.556;2023-09-30T05:41:45;20.40;;;10.00;;
8564;SDS011;4320;51.498;6.556;2023-09-30T05:44:11;16.85;;;9.93;;
8564;SDS011;4320;51.498;6.556;2023-09-30T05:46:39;14.52;;;9.52;;
8564;SDS011;4320;51.498;6.556;2023-09-30T05:49:05;19.33;;;9.52;;
8564;SDS011;4320;51.498;6.556;2023-09-30T05:51:36;21.45;;;9.38;;
8564;SDS011;4320;51.498;6.556;2023-09-30T05:54:01;15.73;;;10.15;;
8564;SDS011;4320;51.498;6.556;2023-09-30T05:56:27;17.23;;;9.38;;
8564;SDS011;4320;51.498;6.556;2023-09-30T05:58:53;18.45;;;9.95;;
8564;SDS011;4320;51.498;6.556;2023-09-30T06:01:19;18.67;;;10.95;;
8564;SDS011;4320;51.498;6.556;2023-09-30T06:03:45;13.95;;;9.38;;
8564;SDS011;4320;51.498;6.556;2023-09-30T06:06:14;19.88;;;9.95;;
8564;SDS011;4320;51.498;6.556;2023-09-30T06:08:43;17.00;;;10.18;;
8564;SDS011;4320;51.498;6.556;2023-09-30T06:11:18;17.02;;;9.82;;
8564;SDS011;4320;51.498;6.556;2023-09-30T06:13:45;16.65;;;9.02;;
8564;SDS011;4320;51.498;6.556;2023-09-30T06:16:11;17.02;;;9.65;;
8564;SDS011;4320;51.498;6.556;2023-09-30T06:18:37;16.55;;;9.18;;
8564;SDS011;4320;51.498;6.556;2023-09-30T06:21:03;20.38;;;10.18;;
8564;SDS011;4320;51.498;6.556;2023-09-30T06:23:29;24.08;;;10.05;;
8564;SDS011;4320;51.498;6.556;2023-09-30T06:25:55;17.42;;;10.48;;
8564;SDS011;4320;51.498;6.556;2023-09-30T06:28:21;17.17;;;10.48;;
8564;SDS011;4320;51.498;6.556;2023-09-30T06:30:51;18.70;;;11.13;;
8564;SDS011;4320;51.498;6.556;2023-09-30T06:33:17;23.02;;;10.57;;
8564;SDS011;4320;51.498;6.556;2023-09-30T06:35:43;20.05;;;11.13;;
8564;SDS011;4320;51.498;6.556;2023-09-30T06:38:16;19.85;;;12.45;;
8564;SDS011;4320;51.498;6.556;2023-09-30T06:40:45;16.15;;;10.57;;
8564;SDS011;4320;51.498;6.556;2023-09-30T06:43:14;17.42;;;11.02;;
8564;SDS011;4320;51.498;6.556;2023-09-30T06:45:43;17.85;;;11.48;;
8564;SDS011;4320;51.498;6.556;2023-09-30T06:48:09;17.02;;;10.73;;
8564;SDS011;4320;51.498;6.556;2023-09-30T06:50:43;16.77;;;10.75;;
8564;SDS011;4320;51.498;6.556;2023-09-30T06:53:10;22.63;;;11.90;;
8564;SDS011;4320;51.498;6.556;2023-09-30T06:55:37;17.05;;;10.88;;
8564;SDS011;4320;51.498;6.556;2023-09-30T06:58:06;18.45;;;11.68;;
8564;SDS011;4320;51.498;6.556;2023-09-30T07:00:35;16.17;;;10.90;;
8564;SDS011;4320;51.498;6.556;2023-09-30T07:03:01;17.25;;;10.93;;
8564;SDS011;4320;51.498;6.556;2023-09-30T07:05:27;16.80;;;9.88;;
8564;SDS011;4320;51.498;6.556;2023-09-30T07:07:54;15.73;;;11.55;;
8564;SDS011;4320;51.498;6.556;2023-09-30T07:10:19;16.55;;;10.35;;
8564;SDS011;4320;51.498;6.556;2023-09-30T07:12:45;19.48;;;11.10;;
8564;SDS011;4320;51.498;6.556;2023-09-30T07:15:11;18.83;;;10.68;;
8564;SDS011;4320;51.498;6.556;2023-09-30T07:17:38;16.98;;;10.90;;
8564;SDS011;4320;51.498;6.556;2023-09-30T07:20:05;16.17;;;10.80;;
8564;SDS011;4320;51.498;6.556;2023-09-30T07:22:31;15.15;;;10.95;;
8564;SDS011;4320;51.498;6.556;2023-09-30T07:24:57;14.15;;;11.57;;
8564;SDS011;4320;51.498;6.556;2023-09-30T07:27:25;14.38;;;10.82;;
8564;SDS011;4320;51.498;6.556;2023-09-30T07:29:51;18.92;;;11.18;;
8564;SDS011;4320;51.498;6.556;2023-09-30T07:32:16;14.85;;;10.20;;
8564;SDS011;4320;51.498;6.556;2023-09-30T07:34:42;13.80;;;9.88;;
8564;SDS011;4320;51.498;6.556;2023-09-30T07:37:08;15.63;;;9.68;;
8564;SDS011;4320;51.498;6.556;2023-09-30T07:39:37;13.45;;;9.82;;
8564;SDS011;4320;51.498;6.556;2023-09-30T07:42:03;16.23;;;10.10;;
8564;SDS011;4320;51.498;6.556;2023-09-30T07:44:29;13.82;;;9.85;;
8564;SDS011;4320;51.498;6.556;2023-09-30T07:46:54;11.55;;;9.18;;
8564;SDS011;4320;51.498;6.556;2023-09-30T07:49:20;14.38;;;9.95;;
8564;SDS011;4320;51.498;6.556;2023-09-30T07:51:45;13.98;;;9.73;;
8564;SDS011;4320;51.498;6.556;2023-09-30T07:54:11;12.13;;;9.60;;
8564;SDS011;4320;51.498;6.556;2023-09-30T07:56:37;13.90;;;9.80;;
8564;SDS011;4320;51.498;6.556;2023-09-30T07:59:03;12.93;;;9.85;;
8564;SDS011;4320;51.498;6.556;2023-09-30T08:01:30;15.27;;;9.45;;
8564;SDS011;4320;51.498;6.556;2023-09-30T08:03:58;14.13;;;9.75;;
8564;SDS011;4320;51.498;6.556;2023-09-30T08:06:24;13.10;;;9.93;;
8564;SDS011;4320;51.498;6.556;2023-09-30T08:08:50;14.32;;;9.85;;
8564;SDS011;4320;51.498;6.556;2023-09-30T08:11:17;14.30;;;9.93;;
8564;SDS011;4320;51.498;6.556;2023-09-30T08:13:45;12.07;;;9.10;;
8564;SDS011;4320;51.498;6.556;2023-09-30T08:16:11;13.55;;;9.48;;
8564;SDS011;4320;51.498;6.556;2023-09-30T08:18:37;12.98;;;9.73;;
8564;SDS011;4320;51.498;6.556;2023-09-30T08:21:03;15.45;;;10.18;;
8564;SDS011;4320;51.498;6.556;2023-09-30T08:23:29;14.15;;;9.88;;
8564;SDS011;4320;51.498;6.556;2023-09-30T08:25:57;13.65;;;9.15;;
8564;SDS011;4320;51.498;6.556;2023-09-30T08:28:24;13.45;;;9.73;;
8564;SDS011;4320;51.498;6.556;2023-09-30T08:30:49;14.23;;;9.93;;
8564;SDS011;4320;51.498;6.556;2023-09-30T08:33:17;13.35;;;9.73;;
8564;SDS011;4320;51.498;6.556;2023-09-30T08:35:43;14.60;;;9.18;;
8564;SDS011;4320;51.498;6.556;2023-09-30T08:38:08;15.02;;;8.45;;
8564;SDS011;4320;51.498;6.556;2023-09-30T08:40:34;15.35;;;9.18;;
8564;SDS011;4320;51.498;6.556;2023-09-30T08:43:00;11.00;;;8.05;;
8564;SDS011;4320;51.498;6.556;2023-09-30T08:45:29;13.98;;;8.30;;
8564;SDS011;4320;51.498;6.556;2023-09-30T08:47:58;11.80;;;8.35;;
8564;SDS011;4320;51.498;6.556;2023-09-30T08:50:30;12.95;;;8.80;;
8564;SDS011;4320;51.498;6.556;2023-09-30T08:52:56;15.52;;;8.40;;
8564;SDS011;4320;51.498;6.556;2023-09-30T08:55:22;10.93;;;7.97;;
8564;SDS011;4320;51.498;6.556;2023-09-30T08:57:52;13.52;;;7.97;;
8564;SDS011;4320;51.498;6.556;2023-09-30T09:00:19;12.35;;;8.45;;
8564;SDS011;4320;51.498;6.556;2023-09-30T09:02:45;12.13;;;8.15;;
8564;SDS011;4320;51.498;6.556;2023-09-30T09:05:11;12.40;;;8.02;;
8564;SDS011;4320;51.498;6.556;2023-09-30T09:07:37;13.80;;;7.53;;
8564;SDS011;4320;51.498;6.556;2023-09-30T09:10:04;10.88;;;7.10;;
8564;SDS011;4320;51.498;6.556;2023-09-30T09:12:36;11.60;;;7.45;;
8564;SDS011;4320;51.498;6.556;2023-09-30T09:15:04;12.68;;;7.50;;
8564;SDS011;4320;51.498;6.556;2023-09-30T09:17:44;14.23;;;7.95;;
8564;SDS011;4320;51.498;6.556;2023-09-30T09:20:11;9.63;;;7.00;;
8564;SDS011;4320;51.498;6.556;2023-09-30T09:22:44;12.77;;;7.82;;
8564;SDS011;4320;51.498;6.556;2023-09-30T09:25:12;13.95;;;8.07;;
8564;SDS011;4320;51.498;6.556;2023-09-30T09:27:38;15.18;;;7.93;;
8564;SDS011;4320;51.498;6.556;2023-09-30T09:35:19;13.25;;;7.88;;
8564;SDS011;4320;51.498;6.556;2023-09-30T09:37:56;12.18;;;8.55;;
8564;SDS011;4320;51.498;6.556;2023-09-30T09:40:25;12.95;;;8.23;;
8564;SDS011;4320;51.498;6.556;2023-09-30T09:42:52;14.68;;;7.53;;
8564;SDS011;4320;51.498;6.556;2023-09-30T09:45:23;15.27;;;8.00;;
8564;SDS011;4320;51.498;6.556;2023-09-30T09:47:51;10.38;;;6.75;;
8564;SDS011;4320;51.498;6.556;2023-09-30T09:50:18;14.23;;;7.13;;
8564;SDS011;4320;51.498;6.556;2023-09-30T09:52:46;12.25;;;7.63;;
8564;SDS011;4320;51.498;6.556;2023-09-30T09:55:15;10.10;;;6.97;;
8564;SDS011;4320;51.498;6.556;2023-09-30T09:57:45;13.88;;;7.57;;
8564;SDS011;4320;51.498;6.556;2023-09-30T10:00:12;15.25;;;8.43;;
8564;SDS011;4320;51.498;6.556;2023-09-30T10:02:40;10.85;;;7.28;;
8564;SDS011;4320;51.498;6.556;2023-09-30T10:05:06;13.60;;;7.70;;
8564;SDS011;4320;51.498;6.556;2023-09-30T10:07:34;9.75;;;6.78;;
8564;SDS011;4320;51.498;6.556;2023-09-30T10:10:02;9.82;;;5.95;;
8564;SDS011;4320;51.498;6.556;2023-09-30T10:12:39;11.48;;;6.05;;
8564;SDS011;4320;51.498;6.556;2023-09-30T10:20:30;12.32;;;5.97;;
8564;SDS011;4320;51.498;6.556;2023-09-30T10:28:51;15.38;;;7.22;;
8564;SDS011;4320;51.498;6.556;2023-09-30T10:31:23;13.70;;;7.35;;
8564;SDS011;4320;51.498;6.556;2023-09-30T10:36:36;11.52;;;7.47;;
8564;SDS011;4320;51.498;6.556;2023-09-30T10:39:04;10.32;;;7.07;;
8564;SDS011;4320;51.498;6.556;2023-09-30T10:46:53;10.68;;;7.10;;
8564;SDS011;4320;51.498;6.556;2023-09-30T10:51:51;13.65;;;8.02;;
8564;SDS011;4320;51.498;6.556;2023-09-30T10:56:50;11.05;;;7.30;;
8564;SDS011;4320;51.498;6.556;2023-09-30T10:59:23;10.30;;;6.90;;
8564;SDS011;4320;51.498;6.556;2023-09-30T11:01:50;9.20;;;6.40;;
8564;SDS011;4320;51.498;6.556;2023-09-30T11:04:20;9.43;;;7.40;;
8564;SDS011;4320;51.498;6.556;2023-09-30T11:06:46;8.85;;;6.28;;
8564;SDS011;4320;51.498;6.556;2023-09-30T11:09:16;11.27;;;6.80;;
8564;SDS011;4320;51.498;6.556;2023-09-30T11:11:47;9.38;;;6.70;;
8564;SDS011;4320;51.498;6.556;2023-09-30T11:16:56;9.82;;;6.28;;
8564;SDS011;4320;51.498;6.556;2023-09-30T11:19:37;9.45;;;5.78;;
8564;SDS011;4320;51.498;6.556;2023-09-30T11:22:12;9.55;;;6.68;;
8564;SDS011;4320;51.498;6.556;2023-09-30T11:24:39;55.97;;;14.02;;
8564;SDS011;4320;51.498;6.556;2023-09-30T11:27:05;17.52;;;9.13;;
8564;SDS011;4320;51.498;6.556;2023-09-30T11:29:30;13.43;;;6.63;;
8564;SDS011;4320;51.498;6.556;2023-09-30T11:31:56;10.00;;;7.45;;
8564;SDS011;4320;51.498;6.556;2023-09-30T11:34:30;9.02;;;6.15;;
8564;SDS011;4320;51.498;6.556;2023-09-30T11:36:57;9.13;;;6.22;;
8564;SDS011;4320;51.498;6.556;2023-09-30T11:39:26;9.77;;;6.13;;
8564;SDS011;4320;51.498;6.556;2023-09-30T11:41:54;8.20;;;6.53;;
8564;SDS011;4320;51.498;6.556;2023-09-30T11:44:22;8.52;;;7.05;;
8564;SDS011;4320;51.498;6.556;2023-09-30T11:46:55;8.88;;;6.40;;
8564;SDS011;4320;51.498;6.556;2023-09-30T11:49:34;11.45;;;6.65;;
8564;SDS011;4320;51.498;6.556;2023-09-30T11:52:01;9.73;;;5.93;;
8564;SDS011;4320;51.498;6.556;2023-09-30T11:57:10;7.13;;;5.28;;
8564;SDS011;4320;51.498;6.556;2023-09-30T11:59:45;9.70;;;5.22;;
8564;SDS011;4320;51.498;6.556;2023-09-30T12:02:12;6.97;;;4.45;;
8564;SDS011;4320;51.498;6.556;2023-09-30T12:04:40;5.78;;;4.18;;
8564;SDS011;4320;51.498;6.556;2023-09-30T12:07:06;6.70;;;4.25;;
8564;SDS011;4320;51.498;6.556;2023-09-30T12:09:33;7.30;;;3.90;;
8564;SDS011;4320;51.498;6.556;2023-09-30T12:12:02;12.52;;;3.40;;
8564;SDS011;4320;51.498;6.556;2023-09-30T12:14:28;18.50;;;5.40;;
8564;SDS011;4320;51.498;6.556;2023-09-30T12:16:58;12.38;;;3.97;;
8564;SDS011;4320;51.498;6.556;2023-09-30T12:19:23;9.13;;;3.78;;
8564;SDS011;4320;51.498;6.556;2023-09-30T12:21:50;6.82;;;4.38;;
8564;SDS011;4320;51.498;6.556;2023-09-30T12:24:15;6.07;;;4.07;;
8564;SDS011;4320;51.498;6.556;2023-09-30T12:26:49;6.75;;;4.70;;
8564;SDS011;4320;51.498;6.556;2023-09-30T12:29:16;6.82;;;4.50;;
8564;SDS011;4320;51.498;6.556;2023-09-30T12:31:43;5.88;;;4.53;;
8564;SDS011;4320;51.498;6.556;2023-09-30T12:34:09;6.38;;;4.20;;
8564;SDS011;4320;51.498;6.556;2023-09-30T12:36:36;9.32;;;4.45;;
8564;SDS011;4320;51.498;6.556;2023-09-30T12:39:01;7.55;;;4.30;;
8564;SDS011;4320;51.498;6.556;2023-09-30T12:41:35;5.18;;;3.70;;
8564;SDS011;4320;51.498;6.556;2023-09-30T12:44:10;6.13;;;4.07;;
8564;SDS011;4320;51.498;6.556;2023-09-30T12:46:36;7.85;;;4.60;;
8564;SDS011;4320;51.498;6.556;2023-09-30T12:49:04;5.85;;;3.85;;
8564;SDS011;4320;51.498;6.556;2023-09-30T12:51:30;5.03;;;3.33;;
8564;SDS011;4320;51.498;6.556;2023-09-30T12:53:56;4.80;;;3.35;;
8564;SDS011;4320;51.498;6.556;2023-09-30T12:56:23;6.05;;;3.97;;
8564;SDS011;4320;51.498;6.556;2023-09-30T12:58:49;7.85;;;4.35;;
8564;SDS011;4320;51.498;6.556;2023-09-30T13:01:14;5.18;;;3.60;;
8564;SDS011;4320;51.498;6.556;2023-09-30T13:03:43;7.97;;;4.07;;
8564;SDS011;4320;51.498;6.556;2023-09-30T13:06:09;5.28;;;3.38;;
8564;SDS011;4320;51.498;6.556;2023-09-30T13:08:35;4.15;;;2.90;;
8564;SDS011;4320;51.498;6.556;2023-09-30T13:11:01;4.72;;;3.35;;
8564;SDS011;4320;51.498;6.556;2023-09-30T13:13:28;6.40;;;3.97;;
8564;SDS011;4320;51.498;6.556;2023-09-30T13:15:55;6.30;;;3.67;;
8564;SDS011;4320;51.498;6.556;2023-09-30T13:18:22;5.93;;;4.03;;
8564;SDS011;4320;51.498;6.556;2023-09-30T13:20:48;7.68;;;4.18;;
8564;SDS011;4320;51.498;6.556;2023-09-30T13:23:14;5.63;;;3.90;;
8564;SDS011;4320;51.498;6.556;2023-09-30T13:25:39;6.18;;;3.85;;
8564;SDS011;4320;51.498;6.556;2023-09-30T13:28:05;6.72;;;3.60;;
8564;SDS011;4320;51.498;6.556;2023-09-30T13:30:33;4.50;;;3.20;;
8564;SDS011;4320;51.498;6.556;2023-09-30T13:32:58;4.18;;;2.92;;
8564;SDS011;4320;51.498;6.556;2023-09-30T13:35:24;5.43;;;3.13;;
8564;SDS011;4320;51.498;6.556;2023-09-30T13:37:49;6.38;;;4.20;;
8564;SDS011;4320;51.498;6.556;2023-09-30T13:40:15;5.50;;;3.53;;
8564;SDS011;4320;51.498;6.556;2023-09-30T13:42:42;6.00;;;3.72;;
8564;SDS011;4320;51.498;6.556;2023-09-30T13:45:08;7.65;;;3.80;;
8564;SDS011;4320;51.498;6.556;2023-09-30T13:47:36;5.35;;;3.72;;
8564;SDS011;4320;51.498;6.556;2023-09-30T13:50:02;5.38;;;4.10;;
8564;SDS011;4320;51.498;6.556;2023-09-30T13:52:33;5.03;;;3.75;;
8564;SDS011;4320;51.498;6.556;2023-09-30T13:54:59;6.72;;;4.20;;
8564;SDS011;4320;51.498;6.556;2023-09-30T13:57:25;4.85;;;3.42;;
8564;SDS011;4320;51.498;6.556;2023-09-30T13:59:50;8.20;;;3.53;;
8564;SDS011;4320;51.498;6.556;2023-09-30T14:02:16;6.13;;;3.70;;
8564;SDS011;4320;51.498;6.556;2023-09-30T14:04:42;6.80;;;3.03;;
8564;SDS011;4320;51.498;6.556;2023-09-30T14:07:07;9.68;;;4.10;;
8564;SDS011;4320;51.498;6.556;2023-09-30T14:09:35;8.00;;;4.03;;
8564;SDS011;4320;51.498;6.556;2023-09-30T14:12:01;5.40;;;3.50;;
8564;SDS011;4320;51.498;6.556;2023-09-30T14:14:29;9.15;;;3.72;;
8564;SDS011;4320;51.498;6.556;2023-09-30T14:16:56;7.22;;;4.18;;
8564;SDS011;4320;51.498;6.556;2023-09-30T14:19:21;7.60;;;3.65;;
8564;SDS011;4320;51.498;6.556;2023-09-30T14:21:47;9.63;;;3.97;;
8564;SDS011;4320;51.498;6.556;2023-09-30T14:24:13;5.40;;;3.63;;
8564;SDS011;4320;51.498;6.556;2023-09-30T14:26:39;4.97;;;3.53;;
8564;SDS011;4320;51.498;6.556;2023-09-30T14:29:05;6.80;;;3.78;;
8564;SDS011;4320;51.498;6.556;2023-09-30T14:31:30;5.10;;;3.30;;
8564;SDS011;4320;51.498;6.556;2023-09-30T14:33:56;8.27;;;5.25;;
8564;SDS011;4320;51.498;6.556;2023-09-30T14:36:21;7.65;;;4.47;;
8564;SDS011;4320;51.498;6.556;2023-09-30T14:38:47;5.55;;;3.72;;
8564;SDS011;4320;51.498;6.556;2023-09-30T14:41:14;6.50;;;3.78;;
8564;SDS011;4320;51.498;6.556;2023-09-30T14:43:40;6.50;;;3.95;;
8564;SDS011;4320;51.498;6.556;2023-09-30T14:46:06;5.35;;;3.53;;
8564;SDS011;4320;51.498;6.556;2023-09-30T14:48:33;6.00;;;3.53;;
8564;SDS011;4320;51.498;6.556;2023-09-30T14:50:59;7.03;;;4.00;;
8564;SDS011;4320;51.498;6.556;2023-09-30T14:53:24;8.70;;;3.85;;
8564;SDS011;4320;51.498;6.556;2023-09-30T14:55:50;7.53;;;3.58;;
8564;SDS011;4320;51.498;6.556;2023-09-30T14:58:17;4.57;;;3.35;;
8564;SDS011;4320;51.498;6.556;2023-09-30T15:00:43;5.80;;;3.47;;
8564;SDS011;4320;51.498;6.556;2023-09-30T15:03:09;6.53;;;3.45;;
8564;SDS011;4320;51.498;6.556;2023-09-30T15:05:35;7.88;;;3.92;;
8564;SDS011;4320;51.498;6.556;2023-09-30T15:08:01;5.90;;;3.70;;
8564;SDS011;4320;51.498;6.556;2023-09-30T15:10:27;7.28;;;4.45;;
8564;SDS011;4320;51.498;6.556;2023-09-30T15:12:53;6.95;;;4.90;;
8564;SDS011;4320;51.498;6.556;2023-09-30T15:15:19;6.28;;;3.72;;
8564;SDS011;4320;51.498;6.556;2023-09-30T15:17:45;5.03;;;3.15;;
8564;SDS011;4320;51.498;6.556;2023-09-30T15:20:11;5.45;;;3.60;;
8564;SDS011;4320;51.498;6.556;2023-09-30T15:22:37;10.43;;;4.00;;
8564;SDS011;4320;51.498;6.556;2023-09-30T15:25:03;5.47;;;3.53;;
8564;SDS011;4320;51.498;6.556;2023-09-30T15:27:29;8.90;;;3.58;;
8564;SDS011;4320;51.498;6.556;2023-09-30T15:29:56;5.07;;;3.80;;
8564;SDS011;4320;51.498;6.556;2023-09-30T15:32:23;6.55;;;3.80;;
8564;SDS011;4320;51.498;6.556;2023-09-30T15:34:49;5.63;;;3.92;;
8564;SDS011;4320;51.498;6.556;2023-09-30T15:37:15;5.80;;;3.58;;
8564;SDS011;4320;51.498;6.556;2023-09-30T15:39:40;5.38;;;3.42;;